Time;durP1;ratioP1;P1;durP2;ratioP2;P2;SDS_P1;SDS_P2;PMS_P1;PMS_P2;Temp;Humidity;BMP_temperature;BMP_pressure;BME280_temperature;BME280_humidity;BME280_pressure;Samples;Min_cycle;Max_cycle;Signal;HPM_P1;HPM_P2
2023/12/18 00:01:27;;;;;;;15.00;6.18;;;;;;;7.45;100.00;103084.34;7392560;19;19922;-80
2023/12/18 00:03:55;;;;;;;11.93;6.28;;;;;;;7.45;100.00;103087.88;7393794;19;20309;-80
2023/12/18 00:06:26;;;;;;;14.73;6.10;;;;;;;7.43;100.00;103087.13;7392788;19;19926;-80
2023/12/18 00:08:55;;;;;;;19.65;6.47;;;;;;;7.43;100.00;103079.06;7393383;19;19922;-80
2023/12/18 00:11:23;;;;;;;17.42;6.53;;;;;;;7.43;100.00;103067.47;7393078;19;19926;-80
2023/12/18 00:14:12;;;;;;;20.83;6.60;;;;;;;7.42;100.00;103065.78;7389852;19;19929;-80
2023/12/18 00:16:41;;;;;;;13.27;5.80;;;;;;;7.42;100.00;103052.38;7393816;19;19934;-80
2023/12/18 00:19:10;;;;;;;21.45;6.63;;;;;;;7.40;100.00;103059.66;7393956;19;19923;-80
2023/12/18 00:21:41;;;;;;;20.60;6.82;;;;;;;7.42;100.00;103055.91;7393474;19;19934;-80
2023/12/18 00:24:10;;;;;;;15.90;5.63;;;;;;;7.43;100.00;103059.44;7393358;19;20572;-80
2023/12/18 00:26:38;;;;;;;21.50;6.03;;;;;;;7.42;100.00;103058.56;7393529;19;19976;-80
2023/12/18 00:29:07;;;;;;;20.60;7.20;;;;;;;7.44;100.00;103047.75;7399309;19;19926;-80
2023/12/18 00:31:35;;;;;;;13.85;6.05;;;;;;;7.44;100.00;103042.41;7390875;19;19949;-80
2023/12/18 00:34:04;;;;;;;12.05;5.70;;;;;;;7.42;100.00;103044.34;7392583;19;20078;-80
2023/12/18 00:36:55;;;;;;;15.05;6.68;;;;;;;7.41;100.00;103034.56;7391017;19;19945;-77
2023/12/18 00:39:24;;;;;;;15.02;6.10;;;;;;;7.43;100.00;103036.16;7393522;19;19933;-77
2023/12/18 00:41:53;;;;;;;15.07;5.93;;;;;;;7.44;100.00;103028.97;7391400;19;20295;-77
2023/12/18 00:44:21;;;;;;;18.95;7.05;;;;;;;7.43;100.00;103041.53;7391157;19;19922;-77
2023/12/18 00:46:50;;;;;;;15.25;6.07;;;;;;;7.45;100.00;103049.47;7393065;19;20029;-77
2023/12/18 00:49:18;;;;;;;22.23;7.05;;;;;;;7.44;100.00;103047.75;7391339;19;19919;-77
2023/12/18 00:51:47;;;;;;;16.83;6.85;;;;;;;7.44;100.00;103053.13;7392048;19;19950;-77
2023/12/18 00:54:18;;;;;;;19.10;6.78;;;;;;;7.45;100.00;103046.81;7397284;19;19926;-77
2023/12/18 00:56:47;;;;;;;15.57;5.97;;;;;;;7.44;100.00;103050.44;7397959;19;19922;-77
2023/12/18 00:59:15;;;;;;;18.17;6.55;;;;;;;7.46;100.00;103045.84;7397703;19;19927;-77
2023/12/18 01:01:44;;;;;;;14.50;6.38;;;;;;;7.47;100.00;103047.53;7394874;19;20345;-79
2023/12/18 01:04:13;;;;;;;15.60;6.90;;;;;;;7.47;100.00;103037.69;7397992;19;19954;-79
2023/12/18 01:06:42;;;;;;;14.90;6.25;;;;;;;7.48;100.00;103038.53;7402040;19;19974;-79
2023/12/18 01:09:12;;;;;;;14.65;5.95;;;;;;;7.49;100.00;103037.59;7399197;19;20845;-79
2023/12/18 01:11:44;;;;;;;16.33;6.97;;;;;;;7.49;100.00;103034.91;7395086;19;19915;-79
2023/12/18 01:14:13;;;;;;;21.20;6.75;;;;;;;7.47;100.00;103037.69;7397918;19;20265;-79
2023/12/18 01:16:42;;;;;;;13.65;6.07;;;;;;;7.49;100.00;103037.59;7398127;19;19926;-80
2023/12/18 01:19:10;;;;;;;15.73;5.72;;;;;;;7.48;100.00;103035.84;7396110;19;19926;-80
2023/12/18 01:21:39;;;;;;;17.35;6.22;;;;;;;7.50;100.00;103033.94;7397357;19;19926;-79
2023/12/18 01:24:08;;;;;;;17.15;6.00;;;;;;;7.49;100.00;103035.75;7398529;19;19923;-79
2023/12/18 01:26:38;;;;;;;19.15;7.13;;;;;;;7.48;100.00;103036.72;7397390;19;19918;-80
2023/12/18 01:29:10;;;;;;;17.88;6.70;;;;;;;7.48;100.00;103035.84;7398901;19;19946;-79
2023/12/18 01:31:38;;;;;;;12.02;5.63;;;;;;;7.48;100.00;103033.19;7398063;19;20352;-79
2023/12/18 01:34:07;;;;;;;18.55;6.35;;;;;;;7.47;100.00;103036.81;7398116;19;19914;-80
2023/12/18 01:36:35;;;;;;;12.32;6.13;;;;;;;7.47;100.00;103040.34;7395904;19;19923;-80
2023/12/18 01:39:04;;;;;;;17.90;7.18;;;;;;;7.48;100.00;103038.53;7398614;19;20252;-79
2023/12/18 01:41:33;;;;;;;22.67;6.88;;;;;;;7.48;100.00;103036.72;7402145;19;19919;-79
2023/12/18 01:44:02;;;;;;;17.92;6.88;;;;;;;7.48;100.00;103035.84;7397580;19;20413;-79
2023/12/18 01:46:36;;;;;;;16.83;6.25;;;;;;;7.46;100.00;103033.31;7399429;19;19926;-80
2023/12/18 01:49:05;;;;;;;14.40;6.30;;;;;;;7.45;100.00;103031.56;7398418;19;19943;-77
2023/12/18 01:51:34;;;;;;;19.27;7.47;;;;;;;7.45;100.00;103028.03;7397169;19;20514;-77
2023/12/18 01:54:02;;;;;;;15.23;5.85;;;;;;;7.43;100.00;103006.66;7394012;19;19954;-77
2023/12/18 01:56:33;;;;;;;20.40;7.22;;;;;;;7.43;100.00;103016.53;7396630;19;19960;-77
2023/12/18 01:59:04;;;;;;;19.08;6.32;;;;;;;7.43;100.00;103027.25;7397386;19;19937;-78
2023/12/18 02:01:55;;;;;;;17.45;6.80;;;;;;;7.43;100.00;103025.44;7391449;19;19926;-77
2023/12/18 02:04:24;;;;;;;16.23;6.72;;;;;;;7.43;100.00;103027.25;7396455;19;19923;-77
2023/12/18 02:06:54;;;;;;;21.20;8.35;;;;;;;7.41;100.00;103038.13;7397711;19;19927;-77
2023/12/18 02:09:22;;;;;;;20.33;7.70;;;;;;;7.41;100.00;103037.25;7394501;19;19942;-79
2023/12/18 02:11:51;;;;;;;13.43;7.10;;;;;;;7.40;100.00;103031.03;7393441;19;19956;-80
2023/12/18 02:14:19;;;;;;;19.73;6.78;;;;;;;7.41;100.00;103015.78;7395684;19;19926;-80
2023/12/18 02:16:48;;;;;;;16.17;6.35;;;;;;;7.42;100.00;103018.34;7397178;19;19934;-79
2023/12/18 02:19:30;;;;;;;18.52;7.30;;;;;;;7.39;100.00;103018.56;7396540;19;19922;-79
2023/12/18 02:22:18;;;;;;;18.95;6.63;;;;;;;7.41;100.00;103032.75;7392125;19;19930;-80
2023/12/18 02:24:49;;;;;;;15.07;6.80;;;;;;;7.42;100.00;103012.16;7394703;19;19931;-80
2023/12/18 02:27:18;;;;;;;21.17;6.82;;;;;;;7.42;100.00;103018.34;7393919;19;19926;-80
2023/12/18 02:29:47;;;;;;;15.98;6.13;;;;;;;7.44;100.00;103020.94;7396016;19;19992;-79
2023/12/18 02:32:15;;;;;;;12.80;6.00;;;;;;;7.44;100.00;103024.50;7395540;19;19926;-80
2023/12/18 02:35:04;;;;;;;13.55;5.93;;;;;;;7.45;100.00;103017.31;7394571;19;19926;-80
2023/12/18 02:37:32;;;;;;;18.55;6.45;;;;;;;7.45;100.00;103006.56;7394957;19;19922;-80
2023/12/18 02:40:03;;;;;;;17.25;6.35;;;;;;;7.45;100.00;103006.56;7394827;19;19926;-80
2023/12/18 02:42:33;;;;;;;14.00;5.65;;;;;;;7.45;100.00;103018.16;7395227;19;19925;-80
2023/12/18 02:45:02;;;;;;;18.98;6.90;;;;;;;7.45;100.00;103004.75;7394044;19;19922;-80
2023/12/18 02:47:31;;;;;;;17.10;6.70;;;;;;;7.47;100.00;103005.50;7394980;19;19926;-80
2023/12/18 02:49:59;;;;;;;15.48;6.00;;;;;;;7.47;100.00;103000.13;7395707;19;19951;-79
2023/12/18 02:52:28;;;;;;;22.00;6.15;;;;;;;7.48;100.00;103001.00;7397401;19;19923;-79
2023/12/18 02:54:56;;;;;;;14.30;5.88;;;;;;;7.48;100.00;103006.34;7396534;19;19926;-79
2023/12/18 02:57:47;;;;;;;17.88;6.10;;;;;;;7.48;100.00;103009.91;7391091;19;19918;-80
2023/12/18 03:00:16;;;;;;;13.60;6.22;;;;;;;7.50;100.00;103007.13;7397446;19;20505;-79
2023/12/18 03:02:45;;;;;;;15.27;6.60;;;;;;;7.50;100.00;103010.66;7395987;19;19923;-80
2023/12/18 03:05:14;;;;;;;16.05;5.30;;;;;;;7.50;100.00;102999.94;7395502;19;20392;-79
2023/12/18 03:07:42;;;;;;;16.42;5.90;;;;;;;7.51;100.00;102990.03;7392879;19;20463;-80
2023/12/18 03:10:11;;;;;;;13.30;4.90;;;;;;;7.52;100.00;103002.50;7396280;19;19955;-79
2023/12/18 03:12:40;;;;;;;15.23;6.43;;;;;;;7.52;100.00;102989.09;7394292;19;19926;-80
2023/12/18 03:15:12;;;;;;;16.38;6.25;;;;;;;7.53;100.00;103004.22;7394314;19;19926;-79
2023/12/18 03:17:40;;;;;;;19.42;6.03;;;;;;;7.53;100.00;102998.88;7394774;19;20317;-79
2023/12/18 03:20:10;;;;;;;17.40;5.72;;;;;;;7.53;100.00;102998.88;7395990;19;19926;-79
2023/12/18 03:22:39;;;;;;;16.42;6.65;;;;;;;7.53;100.00;102993.50;7394648;19;19943;-79
2023/12/18 03:25:08;;;;;;;17.92;6.70;;;;;;;7.53;100.00;102993.50;7399464;19;19918;-79
2023/12/18 03:27:37;;;;;;;16.35;6.20;;;;;;;7.52;100.00;102992.63;7396856;19;19927;-79
2023/12/18 03:30:07;;;;;;;21.33;6.72;;;;;;;7.53;100.00;102985.44;7396931;19;19943;-79
2023/12/18 03:32:38;;;;;;;16.55;7.00;;;;;;;7.53;100.00;102983.63;7392975;19;19922;-79
2023/12/18 03:35:07;;;;;;;18.58;6.15;;;;;;;7.53;100.00;102980.94;7393883;19;19947;-79
2023/12/18 03:37:36;;;;;;;15.15;6.65;;;;;;;7.54;100.00;102973.75;7394570;19;19951;-79
2023/12/18 03:40:05;;;;;;;18.58;6.47;;;;;;;7.54;100.00;102965.72;7395189;19;19922;-79
2023/12/18 03:42:34;;;;;;;13.73;6.22;;;;;;;7.53;100.00;102961.31;7394876;19;20552;-79
2023/12/18 03:45:03;;;;;;;15.45;6.28;;;;;;;7.53;100.00;102964.84;7392528;19;20401;-79
2023/12/18 03:47:31;;;;;;;11.35;6.00;;;;;;;7.53;100.00;102966.69;7392510;19;19929;-80
2023/12/18 03:50:03;;;;;;;18.65;6.97;;;;;;;7.53;100.00;102966.69;7395118;19;19922;-79
2023/12/18 03:52:31;;;;;;;16.25;6.50;;;;;;;7.53;100.00;102962.19;7393138;19;19960;-79
2023/12/18 03:55:00;;;;;;;10.38;5.75;;;;;;;7.55;100.00;102964.75;7392429;19;19947;-79
2023/12/18 03:57:28;;;;;;;16.15;6.75;;;;;;;7.55;100.00;102959.41;7394244;19;20578;-79
2023/12/18 03:59:57;;;;;;;15.88;6.07;;;;;;;7.55;100.00;102960.22;7395245;19;19983;-79
2023/12/18 04:02:26;;;;;;;17.77;6.78;;;;;;;7.57;100.00;102962.81;7400763;19;19939;-79
2023/12/18 04:04:54;;;;;;;16.88;5.50;;;;;;;7.57;100.00;102957.44;7394067;19;19956;-79
2023/12/18 04:07:26;;;;;;;21.65;6.72;;;;;;;7.60;100.00;102965.28;7392083;19;20370;-79
2023/12/18 04:09:54;;;;;;;16.45;6.03;;;;;;;7.60;100.00;102957.22;7392766;19;19954;-79
2023/12/18 04:12:23;;;;;;;20.17;6.28;;;;;;;7.60;100.00;102968.81;7394456;19;19922;-79
2023/12/18 04:14:52;;;;;;;14.98;5.78;;;;;;;7.61;100.00;102965.19;7394553;19;19982;-79
2023/12/18 04:17:20;;;;;;;13.38;5.95;;;;;;;7.62;100.00;102968.72;7392758;19;19919;-79
2023/12/18 04:19:49;;;;;;;15.35;6.40;;;;;;;7.61;100.00;102958.97;7390350;19;19939;-79
2023/12/18 04:22:17;;;;;;;15.20;6.25;;;;;;;7.61;100.00;102953.59;7395104;19;19921;-80
2023/12/18 04:24:48;;;;;;;17.52;6.65;;;;;;;7.61;100.00;102967.88;7393063;19;20227;-79
2023/12/18 04:27:17;;;;;;;15.35;7.35;;;;;;;7.61;100.00;102953.59;7389130;19;19926;-79
2023/12/18 04:29:46;;;;;;;17.80;7.25;;;;;;;7.62;100.00;102947.28;7388400;19;19959;-80
2023/12/18 04:32:35;;;;;;;15.38;7.35;;;;;;;7.62;100.00;102952.63;7390454;19;19918;-79
2023/12/18 04:35:03;;;;;;;14.45;5.50;;;;;;;7.62;100.00;102947.28;7392341;19;19919;-79
2023/12/18 04:37:32;;;;;;;12.02;5.95;;;;;;;7.61;100.00;102938.34;7389062;19;19915;-80
2023/12/18 04:40:04;;;;;;;12.88;6.00;;;;;;;7.61;100.00;102938.34;7392751;19;20250;-79
2023/12/18 04:42:33;;;;;;;19.92;6.03;;;;;;;7.62;100.00;102941.91;7391980;19;19994;-79
2023/12/18 04:45:02;;;;;;;18.35;5.88;;;;;;;7.63;100.00;102947.16;7393007;19;19949;-79
2023/12/18 04:47:31;;;;;;;22.80;6.35;;;;;;;7.64;100.00;102938.13;7392231;19;19946;-79
2023/12/18 04:49:59;;;;;;;17.50;6.25;;;;;;;7.66;100.00;102946.09;7391799;19;20297;-79
2023/12/18 04:52:28;;;;;;;12.90;6.20;;;;;;;7.66;100.00;102967.53;7391555;19;19930;-79
2023/12/18 04:54:56;;;;;;;17.08;6.03;;;;;;;7.68;100.00;102944.13;7393035;19;20345;-79
2023/12/18 04:57:27;;;;;;;18.33;6.00;;;;;;;7.68;100.00;102950.38;7393688;19;19925;-79
2023/12/18 04:59:56;;;;;;;14.77;6.15;;;;;;;7.69;100.00;102948.53;7390986;19;19930;-79
2023/12/18 05:02:25;;;;;;;17.13;6.10;;;;;;;7.71;100.00;102949.31;7392987;19;19919;-79
2023/12/18 05:04:53;;;;;;;13.90;5.95;;;;;;;7.71;100.00;102930.53;7391986;19;19934;-79
2023/12/18 05:07:22;;;;;;;15.07;5.82;;;;;;;7.71;100.00;102928.72;7391691;19;19939;-79
2023/12/18 05:09:50;;;;;;;14.35;6.30;;;;;;;7.71;100.00;102923.34;7394114;19;19930;-79
2023/12/18 05:12:19;;;;;;;14.48;5.82;;;;;;;7.71;100.00;102927.84;7392159;19;19934;-79
2023/12/18 05:14:51;;;;;;;13.05;5.47;;;;;;;7.72;100.00;102924.22;7399034;19;19959;-79
2023/12/18 05:17:39;;;;;;;22.00;7.82;;;;;;;7.71;100.00;102912.63;7386745;19;19923;-79
2023/12/18 05:20:08;;;;;;;14.30;6.78;;;;;;;7.71;100.00;102914.44;7392478;19;19959;-79
2023/12/18 05:22:37;;;;;;;14.50;5.40;;;;;;;7.71;100.00;102926.03;7390070;19;20002;-79
2023/12/18 05:25:06;;;;;;;16.98;7.40;;;;;;;7.74;100.00;102922.25;7392405;19;20301;-79
2023/12/18 05:27:35;;;;;;;17.33;5.85;;;;;;;7.74;100.00;102938.34;7390084;19;19923;-79
2023/12/18 05:30:07;;;;;;;14.75;5.85;;;;;;;7.75;100.00;102927.53;7391047;19;19927;-79
2023/12/18 05:32:35;;;;;;;15.23;7.25;;;;;;;7.75;100.00;102935.56;7388082;19;19922;-77
2023/12/18 05:35:04;;;;;;;23.52;5.40;;;;;;;7.77;100.00;102937.28;7392263;19;19919;-77
2023/12/18 05:37:33;;;;;;;12.70;6.43;;;;;;;7.79;100.00;102944.25;7389831;19;19937;-77
2023/12/18 05:40:01;;;;;;;16.30;6.30;;;;;;;7.79;100.00;102973.78;7395997;19;19927;-78
2023/12/18 05:42:30;;;;;;;16.40;5.80;;;;;;;7.80;100.00;102947.81;7401392;19;19957;-78
2023/12/18 05:44:58;;;;;;;15.63;5.72;;;;;;;7.80;100.00;102937.94;7401174;19;19922;-79
2023/12/18 05:47:30;;;;;;;14.40;5.22;;;;;;;7.82;100.00;102943.16;7397752;19;19926;-79
2023/12/18 05:49:59;;;;;;;20.10;6.22;;;;;;;7.83;100.00;102943.06;7392052;19;19926;-78
2023/12/18 05:52:47;;;;;;;12.43;5.72;;;;;;;7.83;100.00;102943.06;7392061;19;19919;-79
2023/12/18 05:55:16;;;;;;;14.38;5.57;;;;;;;7.85;100.00;102954.56;7393358;19;19930;-79
2023/12/18 05:57:45;;;;;;;14.95;5.65;;;;;;;7.85;100.00;102941.16;7392386;19;19923;-77
2023/12/18 06:00:16;;;;;;;15.30;5.72;;;;;;;7.86;100.00;102940.16;7391758;19;19915;-78
2023/12/18 06:02:47;;;;;;;12.23;5.22;;;;;;;7.87;100.00;102924.91;7390728;19;22292;-77
2023/12/18 06:05:16;;;;;;;14.07;5.25;;;;;;;7.87;100.00;102930.28;7393102;19;19939;-78
2023/12/18 06:07:44;;;;;;;13.48;5.50;;;;;;;7.87;100.00;102927.59;7393813;19;19928;-77
2023/12/18 06:10:33;;;;;;;13.07;5.75;;;;;;;7.87;100.00;102932.97;7394898;19;19965;-78
2023/12/18 06:13:02;;;;;;;13.50;6.13;;;;;;;7.87;100.00;102933.84;7394365;19;19925;-78
2023/12/18 06:15:30;;;;;;;18.00;5.88;;;;;;;7.87;100.00;102931.16;7395123;19;19942;-78
2023/12/18 06:18:01;;;;;;;13.52;5.00;;;;;;;7.88;100.00;102940.06;7394551;19;19926;-78
2023/12/18 06:20:30;;;;;;;15.90;5.22;;;;;;;7.87;100.00;102928.47;7396021;19;19919;-78
2023/12/18 06:22:59;;;;;;;17.40;5.97;;;;;;;7.89;100.00;102937.28;7396086;19;19927;-80
2023/12/18 06:25:27;;;;;;;17.52;5.53;;;;;;;7.89;100.00;102941.78;7400287;19;19927;-80
2023/12/18 06:27:56;;;;;;;12.43;5.60;;;;;;;7.91;100.00;102939.84;7393910;19;20294;-77
2023/12/18 06:30:24;;;;;;;12.02;5.22;;;;;;;7.89;100.00;102949.84;7395788;19;19943;-77
2023/12/18 06:32:53;;;;;;;12.20;5.72;;;;;;;7.89;100.00;102947.16;7395407;19;19919;-77
2023/12/18 06:35:24;;;;;;;15.75;5.65;;;;;;;7.88;100.00;102948.97;7396026;19;19923;-77
2023/12/18 06:37:53;;;;;;;16.17;5.53;;;;;;;7.89;100.00;102960.56;7392061;19;19922;-79
2023/12/18 06:40:22;;;;;;;11.77;5.55;;;;;;;7.89;100.00;102952.53;7396307;19;19911;-79
2023/12/18 06:42:51;;;;;;;14.88;5.50;;;;;;;7.89;100.00;102956.06;7395943;19;20313;-81
2023/12/18 06:45:19;;;;;;;13.43;5.53;;;;;;;7.88;100.00;102935.56;7395616;19;19930;-82
2023/12/18 06:47:49;;;;;;;11.63;5.63;;;;;;;7.89;100.00;102942.66;7392396;19;19925;-78
2023/12/18 06:50:18;;;;;;;22.63;6.15;;;;;;;7.89;100.00;102944.47;7392704;19;19986;-81
2023/12/18 06:52:49;;;;;;;18.42;5.72;;;;;;;7.90;100.00;102954.22;7397368;19;19918;-81
2023/12/18 06:55:19;;;;;;;18.85;6.20;;;;;;;7.89;100.00;102952.53;7396257;19;19926;-79
2023/12/18 06:57:48;;;;;;;16.05;7.13;;;;;;;7.90;100.00;102938.13;7393704;19;19926;-79
2023/12/18 07:00:18;;;;;;;16.73;6.25;;;;;;;7.90;100.00;102944.34;7392236;19;19974;-79
2023/12/18 07:02:47;;;;;;;18.42;6.88;;;;;;;7.89;100.00;102950.69;7385920;19;19978;-77
2023/12/18 07:05:16;;;;;;;16.80;6.38;;;;;;;7.90;100.00;102938.97;7395021;19;19919;-80
2023/12/18 07:07:45;;;;;;;19.58;6.22;;;;;;;7.90;100.00;102941.66;7395759;19;19943;-79
2023/12/18 07:10:16;;;;;;;17.88;6.45;;;;;;;7.91;100.00;102939.84;7396462;19;19935;-78
2023/12/18 07:12:48;;;;;;;14.77;6.10;;;;;;;7.90;100.00;102944.34;7395601;19;19922;-78
2023/12/18 07:15:17;;;;;;;16.77;6.72;;;;;;;7.91;100.00;102938.00;7397618;19;20324;-77
2023/12/18 07:17:58;;;;;;;15.68;5.93;;;;;;;7.91;100.00;102943.38;7393272;19;20361;-79
2023/12/18 07:20:26;;;;;;;14.00;6.18;;;;;;;7.90;100.00;102944.34;7395682;19;19943;-77
2023/12/18 07:22:56;;;;;;;12.35;5.55;;;;;;;7.92;100.00;102957.66;7394425;19;19943;-81
2023/12/18 07:25:27;;;;;;;13.93;5.90;;;;;;;7.92;100.00;102958.53;7384584;19;19937;-79
2023/12/18 07:27:56;;;;;;;12.20;6.13;;;;;;;7.92;100.00;102958.53;7395027;19;20369;-77
2023/12/18 07:30:25;;;;;;;18.02;6.18;;;;;;;7.94;100.00;102955.75;7383512;19;19928;-77
2023/12/18 07:32:54;;;;;;;19.52;6.78;;;;;;;7.94;100.00;102953.88;7390137;19;19922;-77
2023/12/18 07:35:22;;;;;;;15.90;6.43;;;;;;;7.95;100.00;102966.34;7398680;19;19924;-77
2023/12/18 07:37:54;;;;;;;15.68;6.38;;;;;;;7.95;100.00;102952.06;7393373;19;19978;-77
2023/12/18 07:40:23;;;;;;;14.68;6.45;;;;;;;7.96;100.00;102959.16;7396736;19;19940;-78
2023/12/18 07:42:54;;;;;;;14.50;7.72;;;;;;;7.96;100.00;102959.16;7394485;19;20010;-77
2023/12/18 07:45:43;;;;;;;18.23;6.72;;;;;;;7.96;100.00;102968.06;7394378;19;19915;-77
2023/12/18 07:48:13;;;;;;;15.43;6.65;;;;;;;7.96;100.00;102960.03;7395344;19;19953;-77
2023/12/18 07:50:48;;;;;;;19.85;7.78;;;;;;;7.96;100.00;102960.03;7392068;19;19927;-80
2023/12/18 07:53:16;;;;;;;17.73;7.00;;;;;;;7.96;100.00;102960.03;7392619;19;19966;-79
2023/12/18 07:55:46;;;;;;;16.75;6.47;;;;;;;7.96;100.00;102954.66;7394983;19;20378;-78
2023/12/18 07:58:17;;;;;;;14.80;5.88;;;;;;;7.96;100.00;102951.97;7394751;19;19914;-78
2023/12/18 08:00:45;;;;;;;13.65;6.30;;;;;;;7.98;100.00;102949.19;7395826;19;19921;-79
2023/12/18 08:03:20;;;;;;;14.98;7.03;;;;;;;7.98;100.00;102943.81;7397767;19;19918;-78
2023/12/18 08:05:49;;;;;;;17.50;6.40;;;;;;;7.98;100.00;102946.50;7395733;19;19918;-79
2023/12/18 08:08:38;;;;;;;15.60;6.28;;;;;;;7.99;100.00;102946.38;7391943;19;19948;-78
2023/12/18 08:11:07;;;;;;;18.52;6.15;;;;;;;7.99;100.00;102957.09;7395461;19;19974;-78
2023/12/18 08:13:58;;;;;;;11.70;5.63;;;;;;;8.01;100.00;102946.28;7392722;19;19927;-79
2023/12/18 08:16:27;;;;;;;15.27;7.35;;;;;;;8.01;100.00;102955.19;7394069;19;19930;-78
2023/12/18 08:19:02;;;;;;;21.90;7.57;;;;;;;8.01;100.00;102947.13;7394993;19;19919;-79
2023/12/18 08:21:31;;;;;;;18.17;7.88;;;;;;;8.01;100.00;102939.09;7392624;19;20432;-78
2023/12/18 08:24:00;;;;;;;19.92;7.68;;;;;;;8.01;100.00;102944.44;7393171;19;19936;-78
2023/12/18 08:26:29;;;;;;;22.23;6.43;;;;;;;8.02;100.00;102939.94;7393390;19;19922;-78
2023/12/18 08:29:01;;;;;;;19.10;7.47;;;;;;;8.02;100.00;102942.63;7391397;19;19974;-78
2023/12/18 08:31:30;;;;;;;13.80;6.38;;;;;;;8.02;100.00;102938.13;7396104;19;19918;-78
2023/12/18 08:33:59;;;;;;;20.98;6.72;;;;;;;8.03;100.00;102934.44;7394530;19;19922;-80
2023/12/18 08:36:29;;;;;;;16.52;6.25;;;;;;;8.04;100.00;102935.31;7395618;19;20600;-81
2023/12/18 08:38:58;;;;;;;17.67;6.70;;;;;;;8.03;100.00;102934.44;7394289;19;19923;-78
2023/12/18 08:41:27;;;;;;;18.08;7.05;;;;;;;8.02;100.00;102927.38;7394575;19;19947;-78
2023/12/18 08:43:56;;;;;;;15.15;6.30;;;;;;;8.03;100.00;102926.41;7394141;19;19951;-78
2023/12/18 08:46:34;;;;;;;20.80;7.47;;;;;;;8.01;100.00;102931.03;7391236;19;19943;-78
2023/12/18 08:49:04;;;;;;;18.65;7.20;;;;;;;8.03;100.00;102929.06;7398796;19;19986;-78
2023/12/18 08:51:53;;;;;;;20.35;7.85;;;;;;;8.01;100.00;102938.22;7392066;19;19954;-78
2023/12/18 08:54:21;;;;;;;17.88;8.00;;;;;;;8.02;100.00;102929.22;7393810;19;19927;-78
2023/12/18 08:56:51;;;;;;;16.15;6.78;;;;;;;7.99;100.00;102938.31;7391246;19;19927;-78
2023/12/18 08:59:20;;;;;;;15.57;8.00;;;;;;;7.99;100.00;102938.31;7390336;19;19922;-78
2023/12/18 09:01:52;;;;;;;20.63;7.68;;;;;;;7.98;100.00;102941.97;7391810;19;19928;-78
2023/12/18 09:04:21;;;;;;;23.80;9.68;;;;;;;7.95;100.00;102946.69;7392937;19;19929;-78
2023/12/18 09:06:49;;;;;;;21.48;8.55;;;;;;;7.92;100.00;102942.41;7390871;19;19919;-78
2023/12/18 09:09:39;;;;;;;18.38;9.25;;;;;;;7.91;100.00;102934.47;7390243;19;19919;-78
2023/12/18 09:12:28;;;;;;;19.38;8.48;;;;;;;7.89;100.00;102948.03;7388356;19;19922;-78
2023/12/18 09:14:57;;;;;;;16.10;8.10;;;;;;;7.90;100.00;102933.59;7396139;19;19930;-78
2023/12/18 09:17:28;;;;;;;24.55;8.18;;;;;;;7.88;100.00;102943.63;7397314;19;19927;-78
2023/12/18 09:19:57;;;;;;;21.77;8.10;;;;;;;7.88;100.00;102946.28;7398655;19;20341;-79
2023/12/18 09:22:25;;;;;;;28.67;9.15;;;;;;;7.90;100.00;102955.06;7398379;19;19915;-79
2023/12/18 09:24:54;;;;;;;22.67;8.32;;;;;;;7.92;100.00;102953.16;7399984;19;19915;-78
2023/12/18 09:27:23;;;;;;;23.42;8.88;;;;;;;7.93;100.00;102954.88;7395129;19;20245;-78
2023/12/18 09:29:51;;;;;;;21.20;8.70;;;;;;;7.94;100.00;102934.28;7397642;19;19937;-78
2023/12/18 09:32:20;;;;;;;22.98;9.07;;;;;;;7.94;100.00;102929.72;7392951;19;19946;-78
2023/12/18 09:34:51;;;;;;;25.60;8.73;;;;;;;7.96;100.00;102943.06;7396696;19;19927;-78
2023/12/18 09:37:20;;;;;;;19.75;8.43;;;;;;;7.97;100.00;102939.41;7395373;19;19939;-81
2023/12/18 09:39:48;;;;;;;25.30;8.75;;;;;;;7.97;100.00;102916.13;7397080;19;19922;-79
2023/12/18 09:42:17;;;;;;;14.05;7.95;;;;;;;7.99;100.00;102924.91;7394391;19;19946;-80
2023/12/18 09:44:49;;;;;;;19.98;8.88;;;;;;;8.00;100.00;102925.75;7397731;19;20290;-80
2023/12/18 09:47:18;;;;;;;24.85;7.97;;;;;;;8.02;100.00;102923.84;7397792;19;19922;-79
2023/12/18 09:49:48;;;;;;;17.25;8.20;;;;;;;8.04;100.00;102916.53;7397755;19;19922;-79
2023/12/18 09:52:20;;;;;;;18.33;8.73;;;;;;;8.05;100.00;102932.53;7397386;19;19945;-78
2023/12/18 09:54:49;;;;;;;25.95;9.45;;;;;;;8.06;100.00;102926.19;7398825;19;19947;-78
2023/12/18 09:57:21;;;;;;;23.73;8.88;;;;;;;8.07;100.00;102922.53;7399662;19;19929;-77
2023/12/18 09:59:50;;;;;;;23.45;9.52;;;;;;;8.09;100.00;102915.22;7400880;19;20361;-78
2023/12/18 10:02:41;;;;;;;18.63;8.93;;;;;;;8.10;100.00;102910.72;7397154;19;19914;-78
2023/12/18 10:05:29;;;;;;;22.60;9.95;;;;;;;8.11;100.00;102901.72;7396142;19;19914;-78
2023/12/18 10:08:03;;;;;;;17.55;8.65;;;;;;;8.12;100.00;102898.03;7396990;19;19926;-78
2023/12/18 10:10:32;;;;;;;19.33;8.98;;;;;;;8.13;100.00;102894.38;7399079;19;19922;-78
2023/12/18 10:13:03;;;;;;;23.40;10.00;;;;;;;8.14;100.00;102896.09;7395994;19;19923;-78
2023/12/18 10:15:33;;;;;;;22.70;8.65;;;;;;;8.14;100.00;102886.22;7398754;19;19914;-78
2023/12/18 10:18:03;;;;;;;22.73;9.95;;;;;;;8.15;100.00;102893.28;7396542;19;19998;-78
2023/12/18 10:20:32;;;;;;;19.33;8.65;;;;;;;8.16;100.00;102889.63;7397767;19;20006;-78
2023/12/18 10:23:07;;;;;;;20.48;8.93;;;;;;;8.18;100.00;102882.34;7399092;19;19918;-78
2023/12/18 10:25:55;;;;;;;20.73;9.38;;;;;;;8.19;100.00;102867.09;7399120;19;20002;-78
2023/12/18 10:28:24;;;;;;;24.77;8.88;;;;;;;8.20;100.00;102866.09;7395757;19;20679;-77
2023/12/18 10:30:54;;;;;;;28.48;10.85;;;;;;;8.23;100.00;102865.03;7397367;19;19922;-77
2023/12/18 10:33:25;;;;;;;20.25;9.15;;;;;;;8.25;100.00;102860.41;7398614;19;19946;-80
2023/12/18 10:35:55;;;;;;;16.67;8.48;;;;;;;8.25;100.00;102885.44;7397310;19;19923;-80
2023/12/18 10:38:32;;;;;;;27.35;9.77;;;;;;;8.26;100.00;102848.69;7396774;19;20549;-79
2023/12/18 10:41:03;;;;;;;24.65;9.93;;;;;;;8.29;100.00;102860.09;7397969;19;19942;-79
2023/12/18 10:43:34;;;;;;;18.70;8.93;;;;;;;8.31;100.00;102862.69;7396766;19;19926;-79
2023/12/18 10:46:04;;;;;;;19.15;9.05;;;;;;;8.33;100.00;102861.56;7398465;19;19918;-79
2023/12/18 10:48:35;;;;;;;22.50;9.80;;;;;;;8.33;100.00;102861.56;7398011;19;19942;-79
2023/12/18 10:51:06;;;;;;;19.48;10.02;;;;;;;8.34;100.00;102870.50;7398720;19;19986;-79
2023/12/18 10:53:38;;;;;;;22.48;10.25;;;;;;;8.34;100.00;102857.94;7395211;19;19937;-79
2023/12/18 10:56:09;;;;;;;22.40;9.40;;;;;;;8.36;100.00;102876.63;7389065;19;19958;-81
2023/12/18 10:58:45;;;;;;;19.75;9.15;;;;;;;8.34;100.00;102862.44;7393146;19;19951;-80
2023/12/18 11:01:16;;;;;;;21.65;9.25;;;;;;;8.33;100.00;102856.22;7395712;19;19960;-78
2023/12/18 11:03:45;;;;;;;23.40;9.50;;;;;;;8.34;100.00;102862.44;7397549;19;19993;-78
2023/12/18 11:06:15;;;;;;;18.90;10.25;;;;;;;8.36;100.00;102844.41;7396437;19;19922;-77
2023/12/18 11:08:47;;;;;;;20.13;9.63;;;;;;;8.40;100.00;102851.25;7398287;19;19922;-76
2023/12/18 11:11:17;;;;;;;25.05;10.82;;;;;;;8.42;100.00;102846.59;7398066;19;20322;-76
2023/12/18 11:14:04;;;;;;;20.60;9.63;;;;;;;8.44;100.00;102858.09;7396215;19;20307;-77
2023/12/18 11:16:43;;;;;;;21.85;10.02;;;;;;;8.47;100.00;102828.31;7396315;19;19930;-80
2023/12/18 11:19:22;;;;;;;21.10;9.23;;;;;;;8.49;100.00;102840.69;7395961;19;20026;-79
2023/12/18 11:21:51;;;;;;;17.20;8.48;;;;;;;8.51;100.00;102836.03;7394570;19;19953;-80
2023/12/18 11:24:22;;;;;;;19.73;8.70;;;;;;;8.53;100.00;102817.13;7396576;19;19927;-79
2023/12/18 11:26:53;;;;;;;22.88;9.07;;;;;;;8.55;100.00;102823.22;7393033;19;19919;-79
2023/12/18 11:29:41;;;;;;;19.27;8.25;;;;;;;8.51;100.00;102827.97;7396779;19;19968;-78
2023/12/18 11:32:13;;;;;;;15.38;8.65;;;;;;;8.55;100.00;102820.53;7393438;19;19933;-78
2023/12/18 11:34:48;;;;;;;20.52;8.50;;;;;;;8.54;100.00;102827.72;7393509;19;19950;-78